sensor_id;sensor_type;location;lat;lon;timestamp;temperature;humidity
59041;DHT22;44825;53.200;6.448;2022-10-31T00:00:59;13.90;99.90
59041;DHT22;44825;53.200;6.448;2022-10-31T00:03:26;13.80;99.90
59041;DHT22;44825;53.200;6.448;2022-10-31T00:05:53;13.80;99.90
59041;DHT22;44825;53.200;6.448;2022-10-31T00:08:21;13.80;99.90
59041;DHT22;44825;53.200;6.448;2022-10-31T00:10:47;13.80;99.90
59041;DHT22;44825;53.200;6.448;2022-10-31T00:13:14;13.80;99.90
59041;DHT22;44825;53.200;6.448;2022-10-31T00:15:41;13.70;99.90
59041;DHT22;44825;53.200;6.448;2022-10-31T00:18:07;13.80;99.90
59041;DHT22;44825;53.200;6.448;2022-10-31T00:20:35;13.70;99.90
59041;DHT22;44825;53.200;6.448;2022-10-31T00:23:02;13.70;99.90
59041;DHT22;44825;53.200;6.448;2022-10-31T00:25:33;13.70;99.90
59041;DHT22;44825;53.200;6.448;2022-10-31T00:27:59;13.70;99.90
59041;DHT22;44825;53.200;6.448;2022-10-31T00:30:26;13.70;99.90
59041;DHT22;44825;53.200;6.448;2022-10-31T00:32:53;13.70;99.90
59041;DHT22;44825;53.200;6.448;2022-10-31T00:35:19;13.70;99.90
59041;DHT22;44825;53.200;6.448;2022-10-31T00:37:46;13.60;99.90
59041;DHT22;44825;53.200;6.448;2022-10-31T00:40:12;13.60;99.90
59041;DHT22;44825;53.200;6.448;2022-10-31T00:42:41;13.60;99.90
59041;DHT22;44825;53.200;6.448;2022-10-31T00:45:08;13.60;99.90
59041;DHT22;44825;53.200;6.448;2022-10-31T00:47:34;13.60;99.90
59041;DHT22;44825;53.200;6.448;2022-10-31T00:50:01;13.50;99.90
59041;DHT22;44825;53.200;6.448;2022-10-31T00:52:28;13.50;99.90
59041;DHT22;44825;53.200;6.448;2022-10-31T00:54:54;13.50;99.90
59041;DHT22;44825;53.200;6.448;2022-10-31T00:57:21;13.50;99.90
59041;DHT22;44825;53.200;6.448;2022-10-31T00:59:49;13.50;99.90
59041;DHT22;44825;53.200;6.448;2022-10-31T01:02:16;13.50;99.90
59041;DHT22;44825;53.200;6.448;2022-10-31T01:04:42;13.40;99.90
59041;DHT22;44825;53.200;6.448;2022-10-31T01:07:09;13.40;99.90
59041;DHT22;44825;53.200;6.448;2022-10-31T01:09:37;13.50;99.90
59041;DHT22;44825;53.200;6.448;2022-10-31T01:12:04;13.40;99.90
59041;DHT22;44825;53.200;6.448;2022-10-31T01:14:30;13.40;99.90
59041;DHT22;44825;53.200;6.448;2022-10-31T01:16:58;13.40;99.90
59041;DHT22;44825;53.200;6.448;2022-10-31T01:19:25;13.40;99.90
59041;DHT22;44825;53.200;6.448;2022-10-31T01:21:53;13.40;99.90
59041;DHT22;44825;53.200;6.448;2022-10-31T01:24:20;13.40;99.90
59041;DHT22;44825;53.200;6.448;2022-10-31T01:26:47;13.40;99.90
59041;DHT22;44825;53.200;6.448;2022-10-31T01:29:13;13.40;99.90
59041;DHT22;44825;53.200;6.448;2022-10-31T01:31:40;13.40;99.90
59041;DHT22;44825;53.200;6.448;2022-10-31T01:34:08;13.40;99.90
59041;DHT22;44825;53.200;6.448;2022-10-31T01:36:38;13.40;99.90
59041;DHT22;44825;53.200;6.448;2022-10-31T01:39:06;13.40;99.90
59041;DHT22;44825;53.200;6.448;2022-10-31T01:41:33;13.40;99.90
59041;DHT22;44825;53.200;6.448;2022-10-31T01:44:01;13.40;99.90
59041;DHT22;44825;53.200;6.448;2022-10-31T01:46:29;13.40;99.90
59041;DHT22;44825;53.200;6.448;2022-10-31T01:48:57;13.40;99.90
59041;DHT22;44825;53.200;6.448;2022-10-31T01:51:28;13.40;99.90
59041;DHT22;44825;53.200;6.448;2022-10-31T01:53:56;13.40;99.90
59041;DHT22;44825;53.200;6.448;2022-10-31T01:56:24;13.40;99.90
59041;DHT22;44825;53.200;6.448;2022-10-31T01:58:51;13.40;99.90
59041;DHT22;44825;53.200;6.448;2022-10-31T02:01:18;13.30;99.90
59041;DHT22;44825;53.200;6.448;2022-10-31T02:03:45;13.30;99.90
59041;DHT22;44825;53.200;6.448;2022-10-31T02:06:13;13.30;99.90
59041;DHT22;44825;53.200;6.448;2022-10-31T02:08:48;13.30;99.90
59041;DHT22;44825;53.200;6.448;2022-10-31T02:11:14;13.30;99.90
59041;DHT22;44825;53.200;6.448;2022-10-31T02:13:41;13.30;99.90
59041;DHT22;44825;53.200;6.448;2022-10-31T02:16:11;13.30;99.90
59041;DHT22;44825;53.200;6.448;2022-10-31T02:18:37;13.30;99.90
59041;DHT22;44825;53.200;6.448;2022-10-31T02:21:07;13.30;99.90
59041;DHT22;44825;53.200;6.448;2022-10-31T02:26:23;13.20;99.90
59041;DHT22;44825;53.200;6.448;2022-10-31T02:29:05;13.20;99.90
59041;DHT22;44825;53.200;6.448;2022-10-31T02:31:37;13.20;99.90
59041;DHT22;44825;53.200;6.448;2022-10-31T02:34:10;13.20;99.90
59041;DHT22;44825;53.200;6.448;2022-10-31T02:36:40;13.20;99.90
59041;DHT22;44825;53.200;6.448;2022-10-31T02:39:10;13.20;99.90
59041;DHT22;44825;53.200;6.448;2022-10-31T02:41:40;13.10;99.90
59041;DHT22;44825;53.200;6.448;2022-10-31T02:44:13;13.20;99.90
59041;DHT22;44825;53.200;6.448;2022-10-31T02:46:44;13.10;99.90
59041;DHT22;44825;53.200;6.448;2022-10-31T02:49:15;13.10;99.90
59041;DHT22;44825;53.200;6.448;2022-10-31T02:51:44;13.10;99.90
59041;DHT22;44825;53.200;6.448;2022-10-31T02:54:18;13.10;99.90
59041;DHT22;44825;53.200;6.448;2022-10-31T02:56:46;13.00;99.90
59041;DHT22;44825;53.200;6.448;2022-10-31T02:59:13;13.00;99.90
59041;DHT22;44825;53.200;6.448;2022-10-31T03:01:47;13.00;99.90
59041;DHT22;44825;53.200;6.448;2022-10-31T03:04:23;13.00;99.90
59041;DHT22;44825;53.200;6.448;2022-10-31T03:06:54;13.00;99.90
59041;DHT22;44825;53.200;6.448;2022-10-31T03:09:25;12.90;99.90
59041;DHT22;44825;53.200;6.448;2022-10-31T03:11:53;13.00;99.90
59041;DHT22;44825;53.200;6.448;2022-10-31T03:14:24;12.90;99.90
59041;DHT22;44825;53.200;6.448;2022-10-31T03:16:54;12.90;99.90
59041;DHT22;44825;53.200;6.448;2022-10-31T03:19:23;12.90;99.90
59041;DHT22;44825;53.200;6.448;2022-10-31T03:21:51;12.90;99.90
59041;DHT22;44825;53.200;6.448;2022-10-31T03:24:19;12.90;99.90
59041;DHT22;44825;53.200;6.448;2022-10-31T03:26:49;12.90;99.90
59041;DHT22;44825;53.200;6.448;2022-10-31T03:29:18;12.90;99.90
59041;DHT22;44825;53.200;6.448;2022-10-31T03:31:47;12.90;99.90
59041;DHT22;44825;53.200;6.448;2022-10-31T03:34:17;12.80;99.90
59041;DHT22;44825;53.200;6.448;2022-10-31T03:36:45;12.80;99.90
59041;DHT22;44825;53.200;6.448;2022-10-31T03:39:13;12.80;99.90
59041;DHT22;44825;53.200;6.448;2022-10-31T03:41:41;12.80;99.90
59041;DHT22;44825;53.200;6.448;2022-10-31T03:44:10;12.70;99.90
59041;DHT22;44825;53.200;6.448;2022-10-31T03:46:38;12.70;99.90
59041;DHT22;44825;53.200;6.448;2022-10-31T03:49:05;12.70;99.90
59041;DHT22;44825;53.200;6.448;2022-10-31T03:51:35;12.80;99.90
59041;DHT22;44825;53.200;6.448;2022-10-31T03:54:07;12.70;99.90
59041;DHT22;44825;53.200;6.448;2022-10-31T03:56:35;12.70;99.90
59041;DHT22;44825;53.200;6.448;2022-10-31T03:59:04;12.70;99.90
59041;DHT22;44825;53.200;6.448;2022-10-31T04:01:32;12.70;99.90
59041;DHT22;44825;53.200;6.448;2022-10-31T04:04:00;12.70;99.90
59041;DHT22;44825;53.200;6.448;2022-10-31T04:06:28;12.70;99.90
59041;DHT22;44825;53.200;6.448;2022-10-31T04:08:59;12.70;99.90
59041;DHT22;44825;53.200;6.448;2022-10-31T04:11:27;12.70;99.90
59041;DHT22;44825;53.200;6.448;2022-10-31T04:13:55;12.70;99.90
59041;DHT22;44825;53.200;6.448;2022-10-31T04:16:22;12.60;99.90
59041;DHT22;44825;53.200;6.448;2022-10-31T04:18:49;12.60;99.90
59041;DHT22;44825;53.200;6.448;2022-10-31T04:21:16;12.50;99.90
59041;DHT22;44825;53.200;6.448;2022-10-31T04:23:42;12.40;99.90
59041;DHT22;44825;53.200;6.448;2022-10-31T04:26:11;12.20;99.90
59041;DHT22;44825;53.200;6.448;2022-10-31T04:28:38;12.10;99.90
59041;DHT22;44825;53.200;6.448;2022-10-31T04:31:05;12.00;99.90
59041;DHT22;44825;53.200;6.448;2022-10-31T04:33:31;12.00;99.90
59041;DHT22;44825;53.200;6.448;2022-10-31T04:35:58;11.90;99.90
59041;DHT22;44825;53.200;6.448;2022-10-31T04:38:24;11.90;99.90
59041;DHT22;44825;53.200;6.448;2022-10-31T04:40:51;11.90;99.90
59041;DHT22;44825;53.200;6.448;2022-10-31T04:43:19;11.90;99.90
59041;DHT22;44825;53.200;6.448;2022-10-31T04:45:46;11.90;99.90
59041;DHT22;44825;53.200;6.448;2022-10-31T04:48:12;11.80;99.90
59041;DHT22;44825;53.200;6.448;2022-10-31T04:50:39;11.80;99.90
59041;DHT22;44825;53.200;6.448;2022-10-31T04:53:06;11.80;99.90
59041;DHT22;44825;53.200;6.448;2022-10-31T04:55:32;11.80;99.90
59041;DHT22;44825;53.200;6.448;2022-10-31T04:57:59;11.70;99.90
59041;DHT22;44825;53.200;6.448;2022-10-31T05:00:27;11.80;99.90
59041;DHT22;44825;53.200;6.448;2022-10-31T05:02:54;11.80;99.90
59041;DHT22;44825;53.200;6.448;2022-10-31T05:05:22;11.70;99.90
59041;DHT22;44825;53.200;6.448;2022-10-31T05:07:48;11.60;99.90
59041;DHT22;44825;53.200;6.448;2022-10-31T05:10:16;11.70;99.90
59041;DHT22;44825;53.200;6.448;2022-10-31T05:12:46;11.60;99.90
59041;DHT22;44825;53.200;6.448;2022-10-31T05:15:14;11.50;99.90
59041;DHT22;44825;53.200;6.448;2022-10-31T05:17:42;11.40;99.90
59041;DHT22;44825;53.200;6.448;2022-10-31T05:20:09;11.40;99.90
59041;DHT22;44825;53.200;6.448;2022-10-31T05:22:35;11.30;99.90
59041;DHT22;44825;53.200;6.448;2022-10-31T05:25:02;11.30;99.90
59041;DHT22;44825;53.200;6.448;2022-10-31T05:27:29;11.30;99.90
59041;DHT22;44825;53.200;6.448;2022-10-31T05:29:55;11.30;99.90
59041;DHT22;44825;53.200;6.448;2022-10-31T05:32:22;11.30;99.90
59041;DHT22;44825;53.200;6.448;2022-10-31T05:34:50;11.40;99.90
59041;DHT22;44825;53.200;6.448;2022-10-31T05:37:17;11.40;99.90
59041;DHT22;44825;53.200;6.448;2022-10-31T05:39:43;11.50;99.90
59041;DHT22;44825;53.200;6.448;2022-10-31T05:42:10;11.50;99.90
59041;DHT22;44825;53.200;6.448;2022-10-31T05:44:37;11.60;99.90
59041;DHT22;44825;53.200;6.448;2022-10-31T05:47:03;11.60;99.90
59041;DHT22;44825;53.200;6.448;2022-10-31T05:49:30;11.60;99.90
59041;DHT22;44825;53.200;6.448;2022-10-31T05:51:58;11.60;99.90
59041;DHT22;44825;53.200;6.448;2022-10-31T05:54:24;11.70;99.90
59041;DHT22;44825;53.200;6.448;2022-10-31T05:56:51;11.70;99.90
59041;DHT22;44825;53.200;6.448;2022-10-31T05:59:18;11.70;99.90
59041;DHT22;44825;53.200;6.448;2022-10-31T06:01:45;11.70;99.90
59041;DHT22;44825;53.200;6.448;2022-10-31T06:04:11;11.70;99.90
59041;DHT22;44825;53.200;6.448;2022-10-31T06:06:38;11.70;99.90
59041;DHT22;44825;53.200;6.448;2022-10-31T06:09:06;11.80;99.90
59041;DHT22;44825;53.200;6.448;2022-10-31T06:11:33;11.80;99.90
59041;DHT22;44825;53.200;6.448;2022-10-31T06:13:59;11.80;99.90
59041;DHT22;44825;53.200;6.448;2022-10-31T06:16:26;11.80;99.90
59041;DHT22;44825;53.200;6.448;2022-10-31T06:18:53;11.80;99.90
59041;DHT22;44825;53.200;6.448;2022-10-31T06:21:19;11.80;99.90
59041;DHT22;44825;53.200;6.448;2022-10-31T06:23:46;11.70;99.90
59041;DHT22;44825;53.200;6.448;2022-10-31T06:26:14;11.50;99.90
59041;DHT22;44825;53.200;6.448;2022-10-31T06:28:41;11.50;99.90
59041;DHT22;44825;53.200;6.448;2022-10-31T06:31:07;11.40;99.90
59041;DHT22;44825;53.200;6.448;2022-10-31T06:33:34;11.30;99.90
59041;DHT22;44825;53.200;6.448;2022-10-31T06:36:01;11.30;99.90
59041;DHT22;44825;53.200;6.448;2022-10-31T06:38:27;11.20;99.90
59041;DHT22;44825;53.200;6.448;2022-10-31T06:40:54;11.10;99.90
59041;DHT22;44825;53.200;6.448;2022-10-31T06:43:22;11.10;99.90
59041;DHT22;44825;53.200;6.448;2022-10-31T06:45:49;11.20;99.90
59041;DHT22;44825;53.200;6.448;2022-10-31T06:48:15;11.20;99.90
59041;DHT22;44825;53.200;6.448;2022-10-31T06:50:42;11.20;99.90
59041;DHT22;44825;53.200;6.448;2022-10-31T06:53:09;11.20;99.90
59041;DHT22;44825;53.200;6.448;2022-10-31T06:55:35;11.20;99.90
59041;DHT22;44825;53.200;6.448;2022-10-31T06:58:02;11.20;99.90
59041;DHT22;44825;53.200;6.448;2022-10-31T07:00:30;11.10;99.90
59041;DHT22;44825;53.200;6.448;2022-10-31T07:02:58;11.00;99.90
59041;DHT22;44825;53.200;6.448;2022-10-31T07:05:25;11.00;99.90
59041;DHT22;44825;53.200;6.448;2022-10-31T07:07:52;11.00;99.90
59041;DHT22;44825;53.200;6.448;2022-10-31T07:10:19;11.00;99.90
59041;DHT22;44825;53.200;6.448;2022-10-31T07:12:46;10.80;99.90
59041;DHT22;44825;53.200;6.448;2022-10-31T07:15:13;11.00;99.90
59041;DHT22;44825;53.200;6.448;2022-10-31T07:17:41;11.00;99.90
59041;DHT22;44825;53.200;6.448;2022-10-31T07:20:08;11.00;99.90
59041;DHT22;44825;53.200;6.448;2022-10-31T07:22:35;11.00;99.90
59041;DHT22;44825;53.200;6.448;2022-10-31T07:25:02;11.00;99.90
59041;DHT22;44825;53.200;6.448;2022-10-31T07:27:29;11.00;99.90
59041;DHT22;44825;53.200;6.448;2022-10-31T07:30:01;11.00;99.90
59041;DHT22;44825;53.200;6.448;2022-10-31T07:32:27;11.20;99.90
59041;DHT22;44825;53.200;6.448;2022-10-31T07:34:55;11.20;99.90
59041;DHT22;44825;53.200;6.448;2022-10-31T07:37:22;11.20;99.90
59041;DHT22;44825;53.200;6.448;2022-10-31T07:39:49;11.30;99.90
59041;DHT22;44825;53.200;6.448;2022-10-31T07:42:15;11.40;99.90
59041;DHT22;44825;53.200;6.448;2022-10-31T07:44:42;11.50;99.90
59041;DHT22;44825;53.200;6.448;2022-10-31T07:47:09;11.50;99.90
59041;DHT22;44825;53.200;6.448;2022-10-31T07:49:35;11.60;99.90
59041;DHT22;44825;53.200;6.448;2022-10-31T07:52:03;11.60;99.90
59041;DHT22;44825;53.200;6.448;2022-10-31T07:54:32;11.70;99.90
59041;DHT22;44825;53.200;6.448;2022-10-31T07:56:58;11.80;99.90
59041;DHT22;44825;53.200;6.448;2022-10-31T07:59:25;11.80;99.90
59041;DHT22;44825;53.200;6.448;2022-10-31T08:01:52;11.90;99.90
59041;DHT22;44825;53.200;6.448;2022-10-31T08:04:19;12.00;99.90
59041;DHT22;44825;53.200;6.448;2022-10-31T08:06:45;12.10;99.90
59041;DHT22;44825;53.200;6.448;2022-10-31T08:09:14;12.10;99.90
59041;DHT22;44825;53.200;6.448;2022-10-31T08:11:41;12.20;99.90
59041;DHT22;44825;53.200;6.448;2022-10-31T08:14:08;12.20;99.90
59041;DHT22;44825;53.200;6.448;2022-10-31T08:16:35;12.30;99.90
59041;DHT22;44825;53.200;6.448;2022-10-31T08:19:01;12.40;99.90
59041;DHT22;44825;53.200;6.448;2022-10-31T08:21:28;12.50;99.90
59041;DHT22;44825;53.200;6.448;2022-10-31T08:23:54;12.50;99.90
59041;DHT22;44825;53.200;6.448;2022-10-31T08:26:23;12.60;99.90
59041;DHT22;44825;53.200;6.448;2022-10-31T08:28:49;12.60;99.90
59041;DHT22;44825;53.200;6.448;2022-10-31T08:31:16;12.70;99.90
59041;DHT22;44825;53.200;6.448;2022-10-31T08:33:43;12.80;99.90
59041;DHT22;44825;53.200;6.448;2022-10-31T08:36:12;12.80;99.90
59041;DHT22;44825;53.200;6.448;2022-10-31T08:38:40;12.80;99.90
59041;DHT22;44825;53.200;6.448;2022-10-31T08:41:06;12.90;99.90
59041;DHT22;44825;53.200;6.448;2022-10-31T08:43:34;12.90;99.90
59041;DHT22;44825;53.200;6.448;2022-10-31T08:46:01;12.90;99.90
59041;DHT22;44825;53.200;6.448;2022-10-31T08:48:28;13.00;99.90
59041;DHT22;44825;53.200;6.448;2022-10-31T08:50:55;13.10;99.90
59041;DHT22;44825;53.200;6.448;2022-10-31T08:53:22;13.10;99.90
59041;DHT22;44825;53.200;6.448;2022-10-31T08:55:49;13.10;99.90
59041;DHT22;44825;53.200;6.448;2022-10-31T08:58:16;13.20;99.90
59041;DHT22;44825;53.200;6.448;2022-10-31T09:00:44;13.30;99.90
59041;DHT22;44825;53.200;6.448;2022-10-31T09:03:12;13.30;99.90
59041;DHT22;44825;53.200;6.448;2022-10-31T09:05:38;13.30;99.90
59041;DHT22;44825;53.200;6.448;2022-10-31T09:08:05;13.40;99.90
59041;DHT22;44825;53.200;6.448;2022-10-31T09:10:33;13.40;99.90
59041;DHT22;44825;53.200;6.448;2022-10-31T09:13:01;13.50;99.90
59041;DHT22;44825;53.200;6.448;2022-10-31T09:15:31;13.60;99.90
59041;DHT22;44825;53.200;6.448;2022-10-31T09:17:59;13.60;99.90
59041;DHT22;44825;53.200;6.448;2022-10-31T09:20:27;13.70;99.90
59041;DHT22;44825;53.200;6.448;2022-10-31T09:22:57;13.70;99.90
59041;DHT22;44825;53.200;6.448;2022-10-31T09:25:24;13.70;99.90
59041;DHT22;44825;53.200;6.448;2022-10-31T09:27:50;13.80;99.90
59041;DHT22;44825;53.200;6.448;2022-10-31T09:30:17;13.90;99.90
59041;DHT22;44825;53.200;6.448;2022-10-31T09:32:44;14.00;99.90
59041;DHT22;44825;53.200;6.448;2022-10-31T09:35:12;14.10;99.90
59041;DHT22;44825;53.200;6.448;2022-10-31T09:37:39;14.20;99.90
59041;DHT22;44825;53.200;6.448;2022-10-31T09:40:05;14.30;99.90
59041;DHT22;44825;53.200;6.448;2022-10-31T09:42:39;14.40;99.90
59041;DHT22;44825;53.200;6.448;2022-10-31T09:45:11;14.50;99.90
59041;DHT22;44825;53.200;6.448;2022-10-31T09:47:43;14.60;99.90
59041;DHT22;44825;53.200;6.448;2022-10-31T09:50:15;14.70;99.90
59041;DHT22;44825;53.200;6.448;2022-10-31T09:52:45;14.80;99.90
59041;DHT22;44825;53.200;6.448;2022-10-31T09:55:14;14.90;99.90
59041;DHT22;44825;53.200;6.448;2022-10-31T09:57:42;15.00;99.90
59041;DHT22;44825;53.200;6.448;2022-10-31T10:00:10;15.20;99.90
59041;DHT22;44825;53.200;6.448;2022-10-31T10:02:42;15.30;99.90
59041;DHT22;44825;53.200;6.448;2022-10-31T10:05:10;15.40;99.90
59041;DHT22;44825;53.200;6.448;2022-10-31T10:07:40;15.50;99.90
59041;DHT22;44825;53.200;6.448;2022-10-31T10:10:13;15.50;99.90
59041;DHT22;44825;53.200;6.448;2022-10-31T10:12:42;15.50;99.90
59041;DHT22;44825;53.200;6.448;2022-10-31T10:15:20;15.60;99.90
59041;DHT22;44825;53.200;6.448;2022-10-31T10:17:51;15.60;99.90
59041;DHT22;44825;53.200;6.448;2022-10-31T10:20:23;15.70;99.90
59041;DHT22;44825;53.200;6.448;2022-10-31T10:22:54;15.80;99.90
59041;DHT22;44825;53.200;6.448;2022-10-31T10:25:22;15.80;99.90
59041;DHT22;44825;53.200;6.448;2022-10-31T10:27:52;16.00;99.90
59041;DHT22;44825;53.200;6.448;2022-10-31T10:30:21;16.00;99.90
59041;DHT22;44825;53.200;6.448;2022-10-31T10:32:49;16.10;99.90
59041;DHT22;44825;53.200;6.448;2022-10-31T10:35:19;16.10;99.90
59041;DHT22;44825;53.200;6.448;2022-10-31T10:37:46;16.10;99.90
59041;DHT22;44825;53.200;6.448;2022-10-31T10:40:18;16.00;99.90
59041;DHT22;44825;53.200;6.448;2022-10-31T10:42:45;15.90;99.90
59041;DHT22;44825;53.200;6.448;2022-10-31T10:45:34;15.90;99.90
59041;DHT22;44825;53.200;6.448;2022-10-31T10:48:22;15.90;99.90
59041;DHT22;44825;53.200;6.448;2022-10-31T10:50:51;15.80;99.90
59041;DHT22;44825;53.200;6.448;2022-10-31T10:53:22;15.70;99.90
59041;DHT22;44825;53.200;6.448;2022-10-31T10:56:00;15.60;99.90
59041;DHT22;44825;53.200;6.448;2022-10-31T10:58:30;15.50;99.90
59041;DHT22;44825;53.200;6.448;2022-10-31T11:00:56;15.50;99.90
59041;DHT22;44825;53.200;6.448;2022-10-31T11:03:23;15.40;99.90
59041;DHT22;44825;53.200;6.448;2022-10-31T11:05:50;15.40;99.90
59041;DHT22;44825;53.200;6.448;2022-10-31T11:08:23;15.40;99.90
59041;DHT22;44825;53.200;6.448;2022-10-31T11:10:55;15.40;99.90
59041;DHT22;44825;53.200;6.448;2022-10-31T11:13:27;15.30;99.90
59041;DHT22;44825;53.200;6.448;2022-10-31T11:15:56;15.50;99.90
59041;DHT22;44825;53.200;6.448;2022-10-31T11:18:24;15.50;99.90
59041;DHT22;44825;53.200;6.448;2022-10-31T11:20:51;15.50;99.90
59041;DHT22;44825;53.200;6.448;2022-10-31T11:23:19;15.50;99.90
59041;DHT22;44825;53.200;6.448;2022-10-31T11:25:50;15.60;99.90
59041;DHT22;44825;53.200;6.448;2022-10-31T11:28:17;15.60;99.90
59041;DHT22;44825;53.200;6.448;2022-10-31T11:30:46;15.60;99.90
59041;DHT22;44825;53.200;6.448;2022-10-31T11:33:16;15.60;99.90
59041;DHT22;44825;53.200;6.448;2022-10-31T11:35:43;15.60;99.90
59041;DHT22;44825;53.200;6.448;2022-10-31T11:38:12;15.60;99.90
59041;DHT22;44825;53.200;6.448;2022-10-31T11:40:50;15.50;99.90
59041;DHT22;44825;53.200;6.448;2022-10-31T11:43:17;15.50;99.90
59041;DHT22;44825;53.200;6.448;2022-10-31T11:45:45;15.50;99.90
59041;DHT22;44825;53.200;6.448;2022-10-31T11:48:16;15.50;99.90
59041;DHT22;44825;53.200;6.448;2022-10-31T11:50:46;15.50;99.90
59041;DHT22;44825;53.200;6.448;2022-10-31T11:53:14;15.40;99.90
59041;DHT22;44825;53.200;6.448;2022-10-31T11:55:41;15.50;99.90
59041;DHT22;44825;53.200;6.448;2022-10-31T11:58:19;15.60;99.90
59041;DHT22;44825;53.200;6.448;2022-10-31T12:00:49;15.60;99.90
59041;DHT22;44825;53.200;6.448;2022-10-31T12:03:22;15.60;99.90
59041;DHT22;44825;53.200;6.448;2022-10-31T12:05:53;15.60;99.90
59041;DHT22;44825;53.200;6.448;2022-10-31T12:08:22;15.60;99.90
59041;DHT22;44825;53.200;6.448;2022-10-31T12:10:56;15.60;99.90
59041;DHT22;44825;53.200;6.448;2022-10-31T12:13:29;15.70;99.90
59041;DHT22;44825;53.200;6.448;2022-10-31T12:16:00;15.60;99.90
59041;DHT22;44825;53.200;6.448;2022-10-31T12:18:34;15.60;99.90
59041;DHT22;44825;53.200;6.448;2022-10-31T12:21:15;15.60;99.90
59041;DHT22;44825;53.200;6.448;2022-10-31T12:23:48;15.60;99.90
59041;DHT22;44825;53.200;6.448;2022-10-31T12:26:19;15.60;99.90
59041;DHT22;44825;53.200;6.448;2022-10-31T12:28:57;15.60;99.90
59041;DHT22;44825;53.200;6.448;2022-10-31T12:31:33;15.70;99.90
59041;DHT22;44825;53.200;6.448;2022-10-31T12:34:07;15.70;99.90
59041;DHT22;44825;53.200;6.448;2022-10-31T12:36:41;15.70;99.90
59041;DHT22;44825;53.200;6.448;2022-10-31T12:39:17;15.70;99.90
59041;DHT22;44825;53.200;6.448;2022-10-31T12:41:47;15.70;99.90
59041;DHT22;44825;53.200;6.448;2022-10-31T12:44:22;15.70;99.90
59041;DHT22;44825;53.200;6.448;2022-10-31T12:46:58;15.70;99.90
59041;DHT22;44825;53.200;6.448;2022-10-31T12:49:34;15.70;99.90
59041;DHT22;44825;53.200;6.448;2022-10-31T12:52:07;15.60;99.90
59041;DHT22;44825;53.200;6.448;2022-10-31T12:54:42;15.60;99.90
59041;DHT22;44825;53.200;6.448;2022-10-31T12:57:16;15.60;99.90
59041;DHT22;44825;53.200;6.448;2022-10-31T12:59:48;15.60;99.90
59041;DHT22;44825;53.200;6.448;2022-10-31T13:02:18;15.60;99.90
59041;DHT22;44825;53.200;6.448;2022-10-31T13:04:47;15.60;99.90
59041;DHT22;44825;53.200;6.448;2022-10-31T13:07:17;15.70;99.90
59041;DHT22;44825;53.200;6.448;2022-10-31T13:09:47;15.60;99.90
59041;DHT22;44825;53.200;6.448;2022-10-31T13:12:16;15.60;99.90
59041;DHT22;44825;53.200;6.448;2022-10-31T13:14:44;15.60;99.90
59041;DHT22;44825;53.200;6.448;2022-10-31T13:17:13;15.60;99.90
59041;DHT22;44825;53.200;6.448;2022-10-31T13:19:43;15.60;99.90
59041;DHT22;44825;53.200;6.448;2022-10-31T13:22:12;15.60;99.90
59041;DHT22;44825;53.200;6.448;2022-10-31T13:24:50;15.70;99.90
59041;DHT22;44825;53.200;6.448;2022-10-31T13:27:20;15.60;99.90
59041;DHT22;44825;53.200;6.448;2022-10-31T13:29:50;15.60;99.90
59041;DHT22;44825;53.200;6.448;2022-10-31T13:32:18;15.60;99.90
59041;DHT22;44825;53.200;6.448;2022-10-31T13:34:46;15.60;99.90
59041;DHT22;44825;53.200;6.448;2022-10-31T13:37:15;15.60;99.90
59041;DHT22;44825;53.200;6.448;2022-10-31T13:39:47;15.60;99.90
59041;DHT22;44825;53.200;6.448;2022-10-31T13:42:17;15.60;99.90
59041;DHT22;44825;53.200;6.448;2022-10-31T13:44:45;15.60;99.90
59041;DHT22;44825;53.200;6.448;2022-10-31T13:47:23;15.60;99.90
59041;DHT22;44825;53.200;6.448;2022-10-31T13:49:51;15.60;99.90
59041;DHT22;44825;53.200;6.448;2022-10-31T13:52:22;15.60;99.90
59041;DHT22;44825;53.200;6.448;2022-10-31T13:54:50;15.60;99.90
59041;DHT22;44825;53.200;6.448;2022-10-31T13:57:29;15.60;99.90
59041;DHT22;44825;53.200;6.448;2022-10-31T13:59:56;15.50;99.90
59041;DHT22;44825;53.200;6.448;2022-10-31T14:02:25;15.60;99.90
59041;DHT22;44825;53.200;6.448;2022-10-31T14:04:55;15.60;99.90
59041;DHT22;44825;53.200;6.448;2022-10-31T14:07:23;15.60;99.90
59041;DHT22;44825;53.200;6.448;2022-10-31T14:09:52;15.60;99.90
59041;DHT22;44825;53.200;6.448;2022-10-31T14:12:22;15.50;99.90
59041;DHT22;44825;53.200;6.448;2022-10-31T14:14:51;15.60;99.90
59041;DHT22;44825;53.200;6.448;2022-10-31T14:17:22;15.50;99.90
59041;DHT22;44825;53.200;6.448;2022-10-31T14:19:59;15.50;99.90
59041;DHT22;44825;53.200;6.448;2022-10-31T14:22:29;15.50;99.90
59041;DHT22;44825;53.200;6.448;2022-10-31T14:24:56;15.50;99.90
59041;DHT22;44825;53.200;6.448;2022-10-31T14:27:32;15.50;99.90
59041;DHT22;44825;53.200;6.448;2022-10-31T14:30:07;15.40;99.90
59041;DHT22;44825;53.200;6.448;2022-10-31T14:32:33;15.40;99.90
59041;DHT22;44825;53.200;6.448;2022-10-31T14:35:02;15.50;99.90
59041;DHT22;44825;53.200;6.448;2022-10-31T14:37:35;15.40;99.90
59041;DHT22;44825;53.200;6.448;2022-10-31T14:40:12;15.40;99.90
59041;DHT22;44825;53.200;6.448;2022-10-31T14:42:47;15.50;99.90
59041;DHT22;44825;53.200;6.448;2022-10-31T14:45:17;15.50;99.90
59041;DHT22;44825;53.200;6.448;2022-10-31T14:47:51;15.40;99.90
59041;DHT22;44825;53.200;6.448;2022-10-31T14:50:40;15.40;99.90
59041;DHT22;44825;53.200;6.448;2022-10-31T14:53:08;15.40;99.90
59041;DHT22;44825;53.200;6.448;2022-10-31T14:55:39;15.40;99.90
59041;DHT22;44825;53.200;6.448;2022-10-31T14:58:09;15.40;99.90
59041;DHT22;44825;53.200;6.448;2022-10-31T15:00:39;15.40;99.90
59041;DHT22;44825;53.200;6.448;2022-10-31T15:03:11;15.40;99.90
59041;DHT22;44825;53.200;6.448;2022-10-31T15:05:42;15.40;99.90
59041;DHT22;44825;53.200;6.448;2022-10-31T15:08:13;15.40;99.90
59041;DHT22;44825;53.200;6.448;2022-10-31T15:10:44;15.30;99.90
59041;DHT22;44825;53.200;6.448;2022-10-31T15:13:14;15.30;99.90
59041;DHT22;44825;53.200;6.448;2022-10-31T15:15:43;15.40;99.90
59041;DHT22;44825;53.200;6.448;2022-10-31T15:18:13;15.30;99.90
59041;DHT22;44825;53.200;6.448;2022-10-31T15:20:44;15.30;99.90
59041;DHT22;44825;53.200;6.448;2022-10-31T15:23:16;15.30;99.90
59041;DHT22;44825;53.200;6.448;2022-10-31T15:25:43;15.30;99.90
59041;DHT22;44825;53.200;6.448;2022-10-31T15:28:14;15.30;99.90
59041;DHT22;44825;53.200;6.448;2022-10-31T15:30:49;15.20;99.90
59041;DHT22;44825;53.200;6.448;2022-10-31T15:33:19;15.20;99.90
59041;DHT22;44825;53.200;6.448;2022-10-31T15:35:55;15.20;99.90
59041;DHT22;44825;53.200;6.448;2022-10-31T15:38:22;15.20;99.90
59041;DHT22;44825;53.200;6.448;2022-10-31T15:40:56;15.20;99.90
59041;DHT22;44825;53.200;6.448;2022-10-31T15:43:24;15.20;99.90